createdAt,value
2018-06-02T00:00:38.127Z,79.40
2018-06-02T00:03:05.676Z,79.30
2018-06-02T00:05:33.359Z,79.40
2018-06-02T00:08:00.923Z,79.60
2018-06-02T00:10:28.514Z,79.90
2018-06-02T00:12:56.082Z,80.00
2018-06-02T00:15:24.469Z,79.80
2018-06-02T00:17:52.805Z,80.50
2018-06-02T00:20:20.405Z,79.70
2018-06-02T00:22:47.966Z,79.80
2018-06-02T00:25:16.331Z,80.10
2018-06-02T00:27:43.903Z,80.10
2018-06-02T00:30:11.494Z,79.60
2018-06-02T00:32:39.056Z,79.40
2018-06-02T00:35:06.656Z,79.70
2018-06-02T00:37:34.214Z,79.70
2018-06-02T00:40:01.791Z,79.50
2018-06-02T00:42:29.358Z,79.30
2018-06-02T00:44:56.948Z,78.90
2018-06-02T00:47:24.496Z,78.30
2018-06-02T00:49:52.852Z,77.30
2018-06-02T00:52:20.409Z,77.30
2018-06-02T00:54:59.895Z,77.90
2018-06-02T00:57:27.459Z,78.00
2018-06-02T00:59:55.042Z,78.40
2018-06-02T01:02:22.595Z,78.50
2018-06-02T01:04:50.169Z,78.60
2018-06-02T01:07:17.742Z,78.30
2018-06-02T01:09:45.333Z,78.20
2018-06-02T01:12:13.663Z,78.40
2018-06-02T01:14:42.017Z,78.50
2018-06-02T01:17:09.683Z,78.40
2018-06-02T01:19:37.272Z,78.60
2018-06-02T01:22:04.851Z,78.30
2018-06-02T01:24:32.415Z,77.80
2018-06-02T01:27:00.021Z,78.20
2018-06-02T01:29:27.585Z,78.80
2018-06-02T01:31:56.088Z,79.50
2018-06-02T01:34:23.645Z,80.00
2018-06-02T01:36:51.255Z,79.80
2018-06-02T01:39:19.593Z,80.10
2018-06-02T01:41:47.202Z,80.10
2018-06-02T01:44:14.815Z,80.00
2018-06-02T01:46:42.412Z,80.00
2018-06-02T01:49:10.730Z,80.70
2018-06-02T01:51:38.302Z,80.60
2018-06-02T01:54:05.872Z,80.60
2018-06-02T01:56:33.458Z,80.00
2018-06-02T01:59:01.792Z,80.20
2018-06-02T02:01:29.372Z,80.10
2018-06-02T02:03:56.935Z,80.30
2018-06-02T02:06:24.531Z,80.30
2018-06-02T02:08:52.091Z,80.40
2018-06-02T02:11:19.673Z,80.60
2018-06-02T02:13:47.249Z,80.60
2018-06-02T02:16:14.835Z,80.80
2018-06-02T02:18:42.391Z,80.70
2018-06-02T02:21:09.983Z,80.60
2018-06-02T02:23:38.333Z,80.60
2018-06-02T02:26:05.920Z,80.60
2018-06-02T02:28:34.246Z,80.80
2018-06-02T02:31:01.840Z,80.70
2018-06-02T02:33:30.171Z,80.70
2018-06-02T02:35:57.764Z,80.70
2018-06-02T02:38:25.892Z,80.50
2018-06-02T02:40:53.450Z,80.40
2018-06-02T02:43:21.041Z,80.80
2018-06-02T02:45:48.624Z,81.10
2018-06-02T02:48:16.212Z,81.00
2018-06-02T02:50:43.777Z,81.40
2018-06-02T02:53:11.369Z,81.60
2018-06-02T02:55:38.929Z,81.40
2018-06-02T02:58:06.509Z,81.50
2018-06-02T03:00:34.092Z,81.60
2018-06-02T03:03:02.445Z,81.60
2018-06-02T03:05:30.030Z,81.60
2018-06-02T03:07:58.391Z,81.70
2018-06-02T03:10:25.958Z,81.70
2018-06-02T03:12:53.563Z,81.80
2018-06-02T03:15:21.134Z,82.00
2018-06-02T03:17:48.732Z,82.00
2018-06-02T03:20:17.078Z,82.30
2018-06-02T03:22:44.691Z,82.30
2018-06-02T03:25:12.280Z,82.30
2018-06-02T03:27:39.867Z,82.30
2018-06-02T03:30:07.435Z,82.40
2018-06-02T03:32:35.011Z,82.60
2018-06-02T03:35:02.593Z,82.80
2018-06-02T03:37:30.959Z,83.20
2018-06-02T03:39:58.530Z,83.20
2018-06-02T03:42:28.112Z,83.00
2018-06-02T03:44:55.691Z,83.00
2018-06-02T03:47:24.053Z,83.00
2018-06-02T03:49:51.602Z,83.10
2018-06-02T03:52:19.212Z,83.20
2018-06-02T03:54:46.786Z,83.10
2018-06-02T03:57:14.359Z,83.10
2018-06-02T03:59:41.943Z,83.10
2018-06-02T04:02:09.523Z,83.10
2018-06-02T04:04:37.104Z,83.00
2018-06-02T04:07:05.445Z,82.50
2018-06-02T04:09:33.023Z,82.60
2018-06-02T04:12:01.363Z,81.70
2018-06-02T04:14:29.632Z,81.70
2018-06-02T04:16:57.207Z,81.90
2018-06-02T04:19:24.782Z,82.00
2018-06-02T04:21:52.331Z,81.60
2018-06-02T04:24:19.908Z,81.30
2018-06-02T04:26:47.499Z,81.00
2018-06-02T04:29:15.077Z,80.60
2018-06-02T04:31:42.652Z,79.60
2018-06-02T04:34:10.248Z,79.50
2018-06-02T04:36:37.796Z,79.80
2018-06-02T04:39:05.382Z,80.10
2018-06-02T04:41:33.766Z,80.70
2018-06-02T04:44:01.319Z,80.60
2018-06-02T04:46:28.907Z,80.60
2018-06-02T04:48:56.829Z,80.70
2018-06-02T04:51:24.383Z,80.60
2018-06-02T04:53:51.979Z,80.70
2018-06-02T04:56:19.547Z,81.10
2018-06-02T04:58:47.136Z,81.30
2018-06-02T05:01:14.720Z,81.00
2018-06-02T05:03:42.298Z,80.70
2018-06-02T05:06:09.911Z,80.90
2018-06-02T05:08:37.497Z,81.00
2018-06-02T05:11:05.090Z,80.50
2018-06-02T05:13:33.426Z,80.00
2018-06-02T05:16:01.041Z,80.00
2018-06-02T05:18:28.601Z,79.60
2018-06-02T05:20:56.186Z,79.80
2018-06-02T05:23:23.759Z,79.50
2018-06-02T05:25:51.344Z,79.20
2018-06-02T05:28:18.898Z,79.30
2018-06-02T05:30:46.507Z,79.30
2018-06-02T05:33:14.065Z,79.40
2018-06-02T05:35:41.668Z,79.30
2018-06-02T05:38:09.252Z,79.20
2018-06-02T05:40:36.913Z,79.00
2018-06-02T05:43:04.447Z,78.60
2018-06-02T05:45:32.028Z,78.90
2018-06-02T05:47:59.596Z,79.50
2018-06-02T05:50:27.948Z,80.30
2018-06-02T05:52:55.525Z,80.30
2018-06-02T05:55:23.103Z,80.20
2018-06-02T05:57:51.431Z,80.90
2018-06-02T06:00:19.029Z,80.70
2018-06-02T06:02:47.378Z,81.20
2018-06-02T06:05:14.972Z,81.20
2018-06-02T06:07:43.297Z,81.10
2018-06-02T06:10:10.884Z,81.00
2018-06-02T06:12:38.455Z,81.10
2018-06-02T06:15:06.040Z,80.80
2018-06-02T06:17:34.389Z,80.90
2018-06-02T06:20:02.758Z,80.50
2018-06-02T06:22:30.330Z,80.50
2018-06-02T06:24:58.740Z,80.50
2018-06-02T06:27:26.305Z,80.50
2018-06-02T06:29:53.884Z,80.60
2018-06-02T06:32:21.474Z,80.50
2018-06-02T06:34:49.035Z,80.40
2018-06-02T06:37:16.616Z,80.10
2018-06-02T06:39:44.954Z,79.60
2018-06-02T06:42:12.526Z,79.50
2018-06-02T06:44:40.139Z,79.50
2018-06-02T06:47:07.720Z,79.40
2018-06-02T06:49:35.268Z,80.20
2018-06-02T06:52:02.951Z,79.60
2018-06-02T06:54:30.529Z,79.20
2018-06-02T06:56:58.104Z,79.20
2018-06-02T06:59:25.666Z,79.00
2018-06-02T07:01:54.047Z,77.60
2018-06-02T07:04:21.626Z,77.50
2018-06-02T07:06:49.978Z,78.40
2018-06-02T07:09:17.539Z,77.60
2018-06-02T07:11:45.138Z,77.30
2018-06-02T07:14:12.708Z,77.20
2018-06-02T07:16:40.285Z,76.30
2018-06-02T07:19:07.882Z,75.80
2018-06-02T07:21:35.507Z,75.50
2018-06-02T07:24:03.054Z,75.70
2018-06-02T07:26:30.632Z,73.70
2018-06-02T07:28:58.204Z,74.20
2018-06-02T07:31:25.779Z,74.30
2018-06-02T07:33:53.342Z,74.80
2018-06-02T07:36:20.922Z,74.60
2018-06-02T07:38:49.280Z,72.50
2018-06-02T07:41:16.901Z,72.50
2018-06-02T07:43:44.517Z,72.50
2018-06-02T07:46:12.867Z,70.10
2018-06-02T07:48:40.499Z,70.10
2018-06-02T07:51:08.064Z,69.70
2018-06-02T07:53:35.658Z,69.50
2018-06-02T07:56:03.225Z,68.80
2018-06-02T07:58:30.806Z,68.20
2018-06-02T08:00:58.440Z,67.10
2018-06-02T08:03:26.019Z,67.80
2018-06-02T08:05:54.393Z,67.10
2018-06-02T08:08:22.774Z,66.60
2018-06-02T08:10:51.111Z,67.70
2018-06-02T08:13:18.693Z,67.50
2018-06-02T08:15:47.139Z,65.50
2018-06-02T08:18:14.710Z,65.50
2018-06-02T08:20:42.300Z,65.70
2018-06-02T08:23:09.913Z,65.40
2018-06-02T08:25:37.489Z,66.90
2018-06-02T08:28:05.085Z,67.40
2018-06-02T08:30:33.420Z,67.40
2018-06-02T08:33:01.053Z,67.30
2018-06-02T08:35:28.616Z,67.80
2018-06-02T08:37:56.199Z,67.40
2018-06-02T08:40:23.781Z,68.20
2018-06-02T08:42:51.371Z,68.10
2018-06-02T08:45:19.782Z,66.10
2018-06-02T08:47:47.392Z,66.10
2018-06-02T08:50:14.973Z,66.50
2018-06-02T08:52:43.340Z,67.10
2018-06-02T08:55:10.925Z,67.10
2018-06-02T08:57:38.517Z,66.90
2018-06-02T09:00:06.088Z,66.90
2018-06-02T09:02:33.659Z,67.80
2018-06-02T09:05:02.016Z,67.50
2018-06-02T09:07:30.004Z,67.50
2018-06-02T09:09:57.593Z,67.20
2018-06-02T09:12:25.923Z,66.90
2018-06-02T09:14:53.515Z,66.80
2018-06-02T09:17:21.091Z,66.30
2018-06-02T09:19:49.429Z,66.70
2018-06-02T09:22:17.017Z,66.60
2018-06-02T09:24:45.266Z,65.50
2018-06-02T09:27:12.837Z,65.20
2018-06-02T09:29:41.942Z,66.10
2018-06-02T09:32:09.520Z,65.30
2018-06-02T09:34:37.873Z,65.50
2018-06-02T09:37:06.430Z,65.50
2018-06-02T09:39:34.020Z,65.70
2018-06-02T09:42:01.576Z,63.90
2018-06-02T09:44:29.167Z,63.90
2018-06-02T09:46:57.545Z,65.10
2018-06-02T09:49:25.963Z,65.00
2018-06-02T09:51:53.537Z,65.00
2018-06-02T09:54:21.184Z,64.40
2018-06-02T09:56:48.749Z,64.20
2018-06-02T09:59:16.333Z,64.40
2018-06-02T10:01:43.889Z,62.90
2018-06-02T10:04:11.473Z,62.60
2018-06-02T10:06:39.039Z,62.30
2018-06-02T10:09:07.375Z,58.70
2018-06-02T10:11:35.703Z,56.30
2018-06-02T10:14:03.286Z,56.30
2018-06-02T10:16:30.847Z,55.20
2018-06-02T10:18:58.431Z,55.80
2018-06-02T10:21:26.019Z,57.20
2018-06-02T10:23:53.567Z,56.60
2018-06-02T10:26:21.168Z,56.40
2018-06-02T10:28:48.724Z,55.60
2018-06-02T10:31:17.074Z,58.30
2018-06-02T10:33:44.640Z,58.20
2018-06-02T10:36:12.231Z,59.80
2018-06-02T10:38:39.796Z,60.20
2018-06-02T10:41:07.380Z,59.70
2018-06-02T10:43:34.963Z,58.20
2018-06-02T10:46:02.592Z,57.40
2018-06-02T10:48:30.143Z,58.10
2018-06-02T10:50:57.723Z,57.10
2018-06-02T10:53:25.320Z,56.00
2018-06-02T10:55:52.907Z,55.30
2018-06-02T10:58:20.488Z,54.60
2018-06-02T11:00:48.093Z,53.40
2018-06-02T11:03:15.713Z,51.80
2018-06-02T11:05:43.289Z,49.60
2018-06-02T11:08:10.836Z,48.90
2018-06-02T11:10:38.425Z,49.20
2018-06-02T11:13:05.997Z,49.40
2018-06-02T11:15:33.927Z,51.90
2018-06-02T11:18:01.489Z,51.30
2018-06-02T11:20:29.074Z,49.80
2018-06-02T11:22:56.680Z,50.20
2018-06-02T11:25:24.326Z,50.20
2018-06-02T11:27:52.643Z,48.40
2018-06-02T11:30:20.220Z,48.40
2018-06-02T11:32:47.788Z,49.60
2018-06-02T11:35:15.392Z,51.20
2018-06-02T11:37:42.956Z,51.40
2018-06-02T11:40:10.544Z,51.30
2018-06-02T11:42:38.132Z,50.30
2018-06-02T11:45:05.684Z,53.20
2018-06-02T11:47:33.277Z,54.80
2018-06-02T11:50:01.604Z,54.30
2018-06-02T11:52:29.183Z,54.30
2018-06-02T11:54:57.075Z,54.50
2018-06-02T11:57:25.431Z,54.80
2018-06-02T11:59:52.975Z,54.80
2018-06-02T12:02:20.548Z,54.30
2018-06-02T12:04:48.114Z,54.10
2018-06-02T12:07:16.627Z,53.80
2018-06-02T12:09:44.981Z,53.70
2018-06-02T12:12:12.569Z,54.30
2018-06-02T12:14:40.146Z,53.40
2018-06-02T12:17:07.722Z,53.80
2018-06-02T12:19:35.672Z,54.20
2018-06-02T12:22:03.267Z,54.30
2018-06-02T12:24:30.964Z,54.30
2018-06-02T12:26:59.359Z,54.50
2018-06-02T12:29:26.913Z,54.50
2018-06-02T12:31:55.432Z,53.00
2018-06-02T12:34:22.988Z,53.00
2018-06-02T12:36:50.580Z,52.40
2018-06-02T12:39:18.137Z,52.80
2018-06-02T12:41:45.710Z,52.50
2018-06-02T12:44:13.263Z,52.60
2018-06-02T12:46:40.834Z,52.10
2018-06-02T12:49:09.170Z,52.30
2018-06-02T12:51:37.547Z,51.70
2018-06-02T12:54:05.212Z,52.20
2018-06-02T12:56:32.761Z,51.30
2018-06-02T12:59:00.345Z,52.10
2018-06-02T13:01:27.892Z,53.40
2018-06-02T13:03:55.481Z,54.30
2018-06-02T13:06:23.072Z,54.10
2018-06-02T13:08:50.713Z,53.00
2018-06-02T13:11:19.034Z,49.90
2018-06-02T13:13:46.608Z,49.80
2018-06-02T13:16:14.200Z,49.80
2018-06-02T13:18:41.784Z,49.20
2018-06-02T13:21:09.378Z,48.60
2018-06-02T13:23:36.963Z,49.40
2018-06-02T13:26:04.519Z,49.60
2018-06-02T13:28:32.099Z,49.60
2018-06-02T13:30:59.651Z,50.70
2018-06-02T13:33:27.225Z,52.20
2018-06-02T13:35:55.563Z,51.70
2018-06-02T13:38:23.175Z,51.70
2018-06-02T13:40:50.744Z,52.10
2018-06-02T13:43:19.088Z,49.60
2018-06-02T13:45:46.641Z,49.50
2018-06-02T13:48:14.247Z,49.60
2018-06-02T13:50:41.815Z,50.10
2018-06-02T13:53:09.387Z,50.70
2018-06-02T13:55:36.946Z,50.70
2018-06-02T13:58:04.526Z,50.90
2018-06-02T14:00:32.101Z,50.90
2018-06-02T14:02:59.710Z,51.20
2018-06-02T14:05:27.352Z,51.50
2018-06-02T14:07:55.711Z,53.70
2018-06-02T14:10:23.273Z,53.70
2018-06-02T14:12:50.849Z,53.60
2018-06-02T14:15:19.196Z,55.00
2018-06-02T14:17:47.607Z,55.00
2018-06-02T14:20:15.947Z,55.90
2018-06-02T14:22:43.498Z,55.90
2018-06-02T14:25:12.015Z,56.20
2018-06-02T14:27:40.077Z,55.80
2018-06-02T14:30:07.670Z,55.20
2018-06-02T14:32:35.232Z,56.10
2018-06-02T14:35:02.846Z,56.30
2018-06-02T14:37:30.401Z,56.30
2018-06-02T14:39:57.975Z,56.00
2018-06-02T14:42:25.543Z,56.60
2018-06-02T14:44:53.157Z,56.50
2018-06-02T14:47:20.711Z,56.60
2018-06-02T14:49:48.938Z,56.80
2018-06-02T14:52:16.498Z,57.00
2018-06-02T14:54:44.079Z,57.60
2018-06-02T14:57:11.669Z,56.70
2018-06-02T14:59:39.280Z,56.50
2018-06-02T15:02:07.620Z,55.60
2018-06-02T15:04:35.228Z,55.40
2018-06-02T15:07:03.591Z,55.40
2018-06-02T15:09:31.220Z,55.40
2018-06-02T15:11:58.803Z,55.30
2018-06-02T15:14:26.387Z,55.10
2018-06-02T15:16:54.740Z,57.10
2018-06-02T15:19:22.340Z,57.10
2018-06-02T15:21:49.932Z,58.70
2018-06-02T15:24:17.541Z,58.80
2018-06-02T15:26:45.893Z,58.80
2018-06-02T15:29:13.481Z,58.80
2018-06-02T15:31:41.830Z,58.40
2018-06-02T15:34:09.394Z,58.30
2018-06-02T15:36:37.799Z,57.70
2018-06-02T15:39:06.110Z,58.30
2018-06-02T15:41:33.678Z,58.10
2018-06-02T15:44:01.239Z,59.10
2018-06-02T15:46:28.844Z,58.70
2018-06-02T15:48:56.423Z,58.70
2018-06-02T15:51:24.797Z,58.90
2018-06-02T15:53:53.297Z,59.30
2018-06-02T15:56:20.871Z,59.20
2018-06-02T15:58:48.447Z,59.50
2018-06-02T16:01:16.662Z,59.80
2018-06-02T16:03:44.227Z,59.50
2018-06-02T16:06:12.567Z,60.40
2018-06-02T16:08:40.148Z,60.40
2018-06-02T16:11:07.739Z,60.70
2018-06-02T16:13:36.065Z,60.60
2018-06-02T16:16:03.667Z,60.60
2018-06-02T16:18:32.000Z,61.40
2018-06-02T16:20:59.570Z,61.30
2018-06-02T16:23:27.152Z,61.60
2018-06-02T16:25:54.750Z,62.40
2018-06-02T16:28:22.321Z,63.10
2018-06-02T16:30:49.909Z,63.10
2018-06-02T16:33:17.488Z,62.90
2018-06-02T16:35:45.102Z,63.20
2018-06-02T16:38:12.666Z,63.50
2018-06-02T16:40:40.255Z,63.60
2018-06-02T16:43:08.225Z,63.40
2018-06-02T16:45:35.802Z,64.00
2018-06-02T16:48:04.178Z,64.10
2018-06-02T16:50:32.530Z,64.70
2018-06-02T16:53:00.123Z,64.80
2018-06-02T16:55:28.531Z,63.10
2018-06-02T16:57:56.108Z,63.10
2018-06-02T17:00:23.673Z,62.70
2018-06-02T17:02:51.287Z,62.60
2018-06-02T17:05:19.641Z,62.40
2018-06-02T17:07:47.208Z,62.40
2018-06-02T17:10:14.785Z,62.60
2018-06-02T17:12:43.119Z,63.00
2018-06-02T17:15:10.724Z,62.90
2018-06-02T17:17:39.112Z,63.30
2018-06-02T17:20:06.740Z,63.30
2018-06-02T17:22:34.319Z,63.80
2018-06-02T17:25:02.690Z,64.10
2018-06-02T17:27:30.303Z,64.10
2018-06-02T17:29:57.905Z,63.80
2018-06-02T17:32:25.488Z,64.10
2018-06-02T17:34:53.819Z,64.30
2018-06-02T17:37:21.405Z,64.30
2018-06-02T17:39:48.982Z,64.20
2018-06-02T17:42:17.371Z,64.60
2018-06-02T17:44:44.955Z,64.60
2018-06-02T17:47:12.530Z,64.90
2018-06-02T17:49:40.855Z,65.40
2018-06-02T17:52:09.215Z,65.10
2018-06-02T17:54:36.836Z,65.00
2018-06-02T17:57:04.433Z,65.30
2018-06-02T17:59:31.991Z,65.60
2018-06-02T18:01:59.583Z,65.90
2018-06-02T18:04:27.188Z,66.00
2018-06-02T18:06:54.743Z,65.90
2018-06-02T18:09:22.356Z,66.20
2018-06-02T18:12:32.932Z,66.10
2018-06-02T18:15:01.379Z,66.20
2018-06-02T18:17:29.845Z,66.30
2018-06-02T18:19:58.249Z,66.40
2018-06-02T18:22:26.652Z,66.30
2018-06-02T18:24:55.042Z,66.50
2018-06-02T18:27:23.420Z,66.60
2018-06-02T18:29:51.823Z,66.90
2018-06-02T18:32:20.222Z,66.80
2018-06-02T18:34:48.612Z,66.80
2018-06-02T18:37:16.991Z,66.80
2018-06-02T18:39:45.414Z,66.90
2018-06-02T18:42:13.789Z,66.80
2018-06-02T18:44:42.169Z,67.50
2018-06-02T18:47:10.533Z,66.80
2018-06-02T18:49:38.933Z,67.40
2018-06-02T18:52:07.316Z,67.40
2018-06-02T18:54:35.724Z,68.40
2018-06-02T18:57:04.144Z,67.70
2018-06-02T18:59:32.540Z,67.80
2018-06-02T19:02:00.955Z,67.80
2018-06-02T19:04:29.362Z,68.20
2018-06-02T19:06:57.730Z,68.10
2018-06-02T19:09:26.125Z,68.40
2018-06-02T19:11:54.601Z,68.10
2018-06-02T19:14:22.996Z,67.90
2018-06-02T19:16:51.378Z,68.50
2018-06-02T19:19:19.794Z,68.20
2018-06-02T19:24:16.349Z,67.90
2018-06-02T19:26:44.712Z,68.20
2018-06-02T19:29:13.085Z,68.20
2018-06-02T19:31:41.436Z,67.80
2018-06-02T19:34:09.855Z,67.90
2018-06-02T19:36:38.222Z,67.90
2018-06-02T19:39:06.646Z,67.80
2018-06-02T19:41:34.996Z,68.00
2018-06-02T19:44:03.421Z,68.20
2018-06-02T19:46:31.801Z,68.40
2018-06-02T19:49:00.139Z,68.70
2018-06-02T19:51:28.519Z,69.00
2018-06-02T19:53:56.864Z,69.00
2018-06-02T19:56:25.309Z,69.40
2018-06-02T19:58:53.677Z,69.50
2018-06-02T20:01:22.090Z,69.70
2018-06-02T20:03:50.470Z,70.30
2018-06-02T20:06:18.928Z,70.90
2018-06-02T20:08:47.275Z,71.10
2018-06-02T20:11:15.686Z,71.30
2018-06-02T20:13:44.051Z,71.60
2018-06-02T20:16:12.544Z,71.20
2018-06-02T20:18:47.702Z,70.60
2018-06-02T20:21:16.076Z,70.40
2018-06-02T20:23:44.420Z,70.30
2018-06-02T20:26:12.798Z,70.20
2018-06-02T20:28:41.152Z,70.10
2018-06-02T20:31:09.517Z,70.00
2018-06-02T20:33:37.868Z,70.10
2018-06-02T20:36:06.302Z,69.80
2018-06-02T20:38:34.628Z,70.00
2018-06-02T20:41:03.021Z,70.80
2018-06-02T20:43:31.383Z,70.60
2018-06-02T20:45:59.756Z,70.60
2018-06-02T20:48:28.088Z,70.60
2018-06-02T20:50:56.529Z,70.50
2018-06-02T20:53:24.901Z,70.50
2018-06-02T20:55:53.279Z,70.40
2018-06-02T20:58:21.654Z,70.50
2018-06-02T21:00:50.046Z,70.70
2018-06-02T21:03:18.400Z,70.70
2018-06-02T21:05:46.873Z,70.60
2018-06-02T21:08:15.222Z,70.60
2018-06-02T21:10:43.588Z,70.60
2018-06-02T21:13:11.936Z,70.80
2018-06-02T21:15:40.333Z,71.00
2018-06-02T21:18:08.703Z,71.20
2018-06-02T21:20:37.043Z,71.60
2018-06-02T21:23:05.410Z,72.30
2018-06-02T21:25:33.746Z,72.40
2018-06-02T21:28:02.107Z,72.70
2018-06-02T21:30:30.457Z,72.30
2018-06-02T21:32:58.862Z,72.80
2018-06-02T21:35:27.214Z,72.90
2018-06-02T21:37:55.601Z,73.00
2018-06-02T21:40:23.952Z,73.50
2018-06-02T21:42:53.360Z,73.40
2018-06-02T21:45:21.726Z,73.70
2018-06-02T21:47:50.153Z,73.70
2018-06-02T21:50:18.526Z,73.50
2018-06-02T21:52:46.936Z,73.40
2018-06-02T21:55:15.288Z,73.70
2018-06-02T21:57:44.190Z,74.30
2018-06-02T22:00:12.537Z,73.70
2018-06-02T22:02:40.907Z,73.70
2018-06-02T22:05:09.280Z,73.90
2018-06-02T22:07:37.639Z,74.10
2018-06-02T22:10:06.003Z,74.00
2018-06-02T22:12:34.530Z,73.90
2018-06-02T22:15:02.895Z,74.00
2018-06-02T22:17:31.218Z,74.00
2018-06-02T22:19:59.591Z,74.00
2018-06-02T22:22:28.062Z,74.10
2018-06-02T22:24:56.411Z,74.10
2018-06-02T22:27:24.778Z,74.10
2018-06-02T22:29:53.096Z,74.20
2018-06-02T22:32:21.466Z,74.20
2018-06-02T22:34:49.815Z,74.40
2018-06-02T22:37:18.211Z,74.60
2018-06-02T22:39:47.428Z,74.60
2018-06-02T22:42:15.799Z,74.50
2018-06-02T22:44:44.161Z,74.80
2018-06-02T22:47:12.568Z,74.60
2018-06-02T22:49:40.900Z,74.50
2018-06-02T22:52:09.235Z,74.50
2018-06-02T22:54:37.649Z,74.50
2018-06-02T22:57:06.058Z,74.40
2018-06-02T22:59:34.581Z,74.50
2018-06-02T23:02:02.972Z,74.50
2018-06-02T23:04:31.411Z,74.50
2018-06-02T23:06:59.965Z,74.80
2018-06-02T23:09:28.366Z,74.60
2018-06-02T23:11:56.737Z,74.80
2018-06-02T23:14:25.118Z,74.90
2018-06-02T23:16:53.470Z,75.10
2018-06-02T23:19:21.824Z,75.10
2018-06-02T23:24:18.229Z,75.20
2018-06-02T23:26:46.581Z,75.20
2018-06-02T23:29:14.925Z,75.30
2018-06-02T23:31:43.294Z,75.20
2018-06-02T23:34:11.675Z,75.10
2018-06-02T23:36:40.027Z,75.50
2018-06-02T23:39:08.400Z,75.40
2018-06-02T23:41:36.752Z,75.30
2018-06-02T23:44:05.150Z,75.40
2018-06-02T23:46:33.493Z,75.30
2018-06-02T23:49:01.904Z,75.30
2018-06-02T23:51:30.231Z,75.50
2018-06-02T23:56:27.280Z,75.50
2018-06-02T23:58:55.672Z,75.50
